createdAt,value
2019-05-07T00:01:46.311Z,153.50
2019-05-07T00:04:13.343Z,154.10
2019-05-07T00:06:40.603Z,152.43
2019-05-07T00:09:12.251Z,153.68
2019-05-07T00:11:39.747Z,153.40
2019-05-07T00:14:06.807Z,152.57
2019-05-07T00:16:34.005Z,153.40
2019-05-07T00:19:03.251Z,154.18
2019-05-07T00:21:32.556Z,152.95
2019-05-07T00:23:59.283Z,153.78
2019-05-07T00:26:27.443Z,153.30
2019-05-07T00:28:54.518Z,153.72
2019-05-07T00:31:23.416Z,152.57
2019-05-07T00:33:52.604Z,153.35
2019-05-07T00:36:27.684Z,154.12
2019-05-07T00:39:02.775Z,153.42
2019-05-07T00:41:38.370Z,152.12
2019-05-07T00:44:07.570Z,152.68
2019-05-07T00:46:34.877Z,152.82
2019-05-07T00:49:02.450Z,153.60
2019-05-07T00:51:33.138Z,152.97
2019-05-07T00:54:02.822Z,153.05
2019-05-07T00:56:30.117Z,153.05
2019-05-07T00:58:57.422Z,152.65
2019-05-07T01:01:25.061Z,152.17
2019-05-07T01:03:53.433Z,153.50
2019-05-07T01:06:22.783Z,153.32
2019-05-07T01:08:49.690Z,151.97
2019-05-07T01:11:17.906Z,151.95
2019-05-07T01:13:45.077Z,154.42
2019-05-07T01:16:12.975Z,152.05
2019-05-07T01:18:42.107Z,155.12
2019-05-07T01:21:09.112Z,151.80
2019-05-07T01:23:36.178Z,152.47
2019-05-07T01:26:03.538Z,153.60
2019-05-07T01:28:34.289Z,153.95
2019-05-07T01:31:02.178Z,151.80
2019-05-07T01:33:38.311Z,152.02
2019-05-07T01:36:10.021Z,152.72
2019-05-07T01:38:37.041Z,152.95
2019-05-07T01:41:04.320Z,153.55
2019-05-07T01:43:32.112Z,154.20
2019-05-07T01:45:59.228Z,153.02
2019-05-07T01:48:26.304Z,153.10
2019-05-07T01:50:53.360Z,154.12
2019-05-07T01:53:22.598Z,155.75
2019-05-07T01:55:49.354Z,152.57
2019-05-07T01:58:16.392Z,153.32
2019-05-07T02:00:43.456Z,152.47
2019-05-07T02:03:20.414Z,152.97
2019-05-07T02:05:53.638Z,153.75
2019-05-07T02:08:44.353Z,152.05
2019-05-07T02:11:13.654Z,152.15
2019-05-07T02:13:42.001Z,153.72
2019-05-07T02:16:09.312Z,153.15
2019-05-07T02:18:37.651Z,153.25
2019-05-07T02:21:04.700Z,152.22
2019-05-07T02:23:33.017Z,151.93
2019-05-07T02:26:02.010Z,152.15
2019-05-07T02:28:29.349Z,152.78
2019-05-07T02:30:56.514Z,152.43
2019-05-07T02:33:23.655Z,152.32
2019-05-07T02:35:53.444Z,151.87
2019-05-07T02:38:33.659Z,154.18
2019-05-07T02:41:06.371Z,152.10
2019-05-07T02:43:33.976Z,152.22
2019-05-07T02:46:22.332Z,154.00
2019-05-07T02:48:53.589Z,152.65
2019-05-07T02:51:34.703Z,151.63
2019-05-07T02:54:24.561Z,151.47
2019-05-07T02:56:53.307Z,151.30
2019-05-07T02:59:23.396Z,151.12
2019-05-07T03:01:49.581Z,149.87
2019-05-07T03:04:16.639Z,151.97
2019-05-07T03:06:44.337Z,151.02
2019-05-07T03:09:14.454Z,150.72
2019-05-07T03:11:43.236Z,150.20
2019-05-07T03:14:09.483Z,152.93
2019-05-07T03:16:43.768Z,150.18
2019-05-07T03:19:05.507Z,152.90
2019-05-07T03:21:53.982Z,151.72
2019-05-07T03:24:35.456Z,152.07
2019-05-07T03:27:03.401Z,151.47
2019-05-07T03:29:33.630Z,151.85
2019-05-07T03:32:37.959Z,152.22
2019-05-07T03:35:17.048Z,150.97
2019-05-07T03:37:44.680Z,151.35
2019-05-07T03:40:14.315Z,152.45
2019-05-07T03:42:43.963Z,152.07
2019-05-07T03:45:27.518Z,154.00
2019-05-07T03:48:17.256Z,152.07
2019-05-07T03:50:44.462Z,152.93
2019-05-07T03:53:14.162Z,153.55
2019-05-07T03:55:44.319Z,152.90
2019-05-07T03:58:14.232Z,151.65
2019-05-07T04:00:43.975Z,152.70
2019-05-07T04:03:12.702Z,150.95
2019-05-07T04:05:43.063Z,151.90
2019-05-07T04:08:12.855Z,152.78
2019-05-07T04:10:38.341Z,151.22
2019-05-07T04:13:05.457Z,151.85
2019-05-07T04:15:33.124Z,155.35
2019-05-07T04:18:03.600Z,153.90
2019-05-07T04:20:33.357Z,153.18
2019-05-07T04:22:59.937Z,154.10
2019-05-07T04:25:58.743Z,152.17
2019-05-07T04:28:54.138Z,151.97
2019-05-07T04:31:23.086Z,152.78
2019-05-07T04:33:53.173Z,151.97
2019-05-07T04:36:23.614Z,152.82
2019-05-07T04:38:53.260Z,151.50
2019-05-07T04:41:19.676Z,153.02
2019-05-07T04:43:49.305Z,153.30
2019-05-07T04:46:16.382Z,154.27
2019-05-07T04:48:44.792Z,154.35
2019-05-07T04:51:17.658Z,153.65
2019-05-07T04:53:45.725Z,152.38
2019-05-07T04:56:14.042Z,153.65
2019-05-07T04:58:43.310Z,156.00
2019-05-07T05:01:13.772Z,154.32
2019-05-07T05:03:43.699Z,154.78
2019-05-07T05:06:10.214Z,154.42
2019-05-07T05:08:37.234Z,154.47
2019-05-07T05:11:04.350Z,155.75
2019-05-07T05:13:33.149Z,156.12
2019-05-07T05:16:12.673Z,157.30
2019-05-07T05:18:41.923Z,155.37
2019-05-07T05:21:22.654Z,155.00
2019-05-07T05:24:09.073Z,156.10
2019-05-07T05:26:36.115Z,157.05
2019-05-07T05:29:03.385Z,155.93
2019-05-07T05:31:33.060Z,158.25
2019-05-07T05:34:02.187Z,157.12
2019-05-07T05:36:39.253Z,156.35
2019-05-07T05:39:22.558Z,157.95
2019-05-07T05:41:56.548Z,155.32
2019-05-07T05:44:33.178Z,161.45
2019-05-07T05:47:02.330Z,160.35
2019-05-07T05:49:29.190Z,159.70
2019-05-07T05:52:15.949Z,161.00
2019-05-07T05:55:06.414Z,160.90
2019-05-07T06:00:22.995Z,159.97
2019-05-07T06:03:06.294Z,158.97
2019-05-07T06:05:44.642Z,160.10
2019-05-07T06:08:25.264Z,160.18
2019-05-07T06:11:11.867Z,159.80
2019-05-07T06:13:58.603Z,161.45
2019-05-07T06:16:29.857Z,159.40
2019-05-07T06:19:22.803Z,157.88
2019-05-07T06:22:18.309Z,158.70
2019-05-07T06:24:56.423Z,160.30
2019-05-07T06:27:23.579Z,159.10
2019-05-07T06:29:52.396Z,159.97
2019-05-07T06:32:22.944Z,162.90
2019-05-07T06:34:52.462Z,163.18
2019-05-07T06:37:22.793Z,162.57
2019-05-07T06:40:15.453Z,162.45
2019-05-07T06:43:03.147Z,162.75
2019-05-07T06:45:51.933Z,163.32
2019-05-07T06:48:34.631Z,162.62
2019-05-07T06:50:57.880Z,160.60
2019-05-07T06:53:26.771Z,161.62
2019-05-07T06:56:05.258Z,163.07
2019-05-07T06:58:58.267Z,165.73
2019-05-07T07:01:54.126Z,164.62
2019-05-07T07:04:35.302Z,161.47
2019-05-07T07:07:23.078Z,162.70
2019-05-07T07:09:44.524Z,161.75
2019-05-07T07:12:16.394Z,161.75
2019-05-07T07:14:43.856Z,162.80
2019-05-07T07:17:13.023Z,162.50
2019-05-07T07:19:40.172Z,164.55
2019-05-07T07:22:13.116Z,164.82
2019-05-07T07:24:42.860Z,166.70
2019-05-07T07:27:10.051Z,166.05
2019-05-07T07:29:39.248Z,163.30
2019-05-07T07:32:06.781Z,166.47
2019-05-07T07:34:38.662Z,164.72
2019-05-07T07:37:16.710Z,166.77
2019-05-07T07:39:43.901Z,166.18
2019-05-07T07:42:12.362Z,167.95
2019-05-07T07:44:39.483Z,166.88
2019-05-07T07:47:06.833Z,167.68
2019-05-07T07:49:33.874Z,166.75
2019-05-07T07:52:03.092Z,169.28
2019-05-07T07:54:32.100Z,167.03
2019-05-07T07:57:08.156Z,166.82
2019-05-07T07:59:52.861Z,169.68
2019-05-07T08:02:47.464Z,169.82
2019-05-07T08:05:21.896Z,171.28
2019-05-07T08:07:49.128Z,171.87
2019-05-07T08:10:16.452Z,170.72
2019-05-07T08:12:43.473Z,171.02
2019-05-07T08:15:18.044Z,172.10
2019-05-07T08:17:41.971Z,171.85
2019-05-07T08:20:12.783Z,169.80
2019-05-07T08:22:42.283Z,169.45
2019-05-07T08:25:12.378Z,171.40
2019-05-07T08:27:39.301Z,171.07
2019-05-07T08:30:08.479Z,171.15
2019-05-07T08:32:58.207Z,172.78
2019-05-07T08:35:32.733Z,172.60
2019-05-07T08:37:59.763Z,169.97
2019-05-07T08:40:27.040Z,173.97
2019-05-07T08:42:57.144Z,173.53
2019-05-07T08:45:43.218Z,171.85
2019-05-07T08:48:15.497Z,172.60
2019-05-07T08:50:44.245Z,172.68
2019-05-07T08:53:13.180Z,175.15
2019-05-07T08:55:42.379Z,176.18
2019-05-07T08:58:09.343Z,176.40
2019-05-07T09:00:36.433Z,172.22
2019-05-07T09:03:04.087Z,172.45
2019-05-07T09:05:32.395Z,172.40
2019-05-07T09:07:59.706Z,173.65
2019-05-07T09:10:26.797Z,172.32
2019-05-07T09:12:53.950Z,172.95
2019-05-07T09:15:22.686Z,175.60
2019-05-07T09:17:50.036Z,172.60
2019-05-07T09:20:17.306Z,171.72
2019-05-07T09:22:44.406Z,172.47
2019-05-07T09:25:13.036Z,170.55
2019-05-07T09:27:42.863Z,170.70
2019-05-07T09:30:38.978Z,171.07
2019-05-07T09:33:25.657Z,169.45
2019-05-07T09:35:54.085Z,172.57
2019-05-07T09:38:22.337Z,170.68
2019-05-07T09:40:49.682Z,169.35
2019-05-07T09:43:16.721Z,168.70
2019-05-07T09:45:43.761Z,170.87
2019-05-07T09:48:11.950Z,169.55
2019-05-07T09:50:40.343Z,168.68
2019-05-07T09:53:07.392Z,172.10
2019-05-07T09:55:34.724Z,171.28
2019-05-07T09:58:03.951Z,168.97
2019-05-07T10:00:32.506Z,169.28
2019-05-07T10:02:59.859Z,170.28
2019-05-07T10:05:31.972Z,168.40
2019-05-07T10:07:59.066Z,169.07
2019-05-07T10:10:26.133Z,169.53
2019-05-07T10:13:08.776Z,169.13
2019-05-07T10:15:36.145Z,169.97
2019-05-07T10:18:09.379Z,169.07
2019-05-07T10:20:36.435Z,168.78
2019-05-07T10:23:03.515Z,167.72
2019-05-07T10:25:39.701Z,168.17
2019-05-07T10:28:07.253Z,170.47
2019-05-07T10:30:34.935Z,172.13
2019-05-07T10:33:01.995Z,169.50
2019-05-07T10:35:31.073Z,168.00
2019-05-07T10:37:58.241Z,168.47
2019-05-07T10:40:25.970Z,165.15
2019-05-07T10:42:53.342Z,167.10
2019-05-07T10:45:42.147Z,169.72
2019-05-07T10:48:24.567Z,166.50
2019-05-07T10:50:53.146Z,166.00
2019-05-07T10:53:20.275Z,167.05
2019-05-07T10:55:47.435Z,166.03
2019-05-07T10:58:14.545Z,165.50
2019-05-07T11:00:42.103Z,165.07
2019-05-07T11:03:12.645Z,164.67
2019-05-07T11:05:42.013Z,162.70
2019-05-07T11:08:09.649Z,162.55
2019-05-07T11:10:37.784Z,162.25
2019-05-07T11:13:04.888Z,162.10
2019-05-07T11:15:32.836Z,159.12
2019-05-07T11:18:21.730Z,161.25
2019-05-07T11:20:53.336Z,164.55
2019-05-07T11:23:19.468Z,162.90
2019-05-07T11:25:46.554Z,162.90
2019-05-07T11:28:13.597Z,163.55
2019-05-07T11:30:42.493Z,165.05
2019-05-07T11:33:09.858Z,164.72
2019-05-07T11:35:36.913Z,167.70
2019-05-07T11:38:17.766Z,166.47
2019-05-07T11:40:34.906Z,167.53
2019-05-07T11:43:14.129Z,167.18
2019-05-07T11:45:46.853Z,163.65
2019-05-07T11:48:14.863Z,162.97
2019-05-07T11:51:00.448Z,161.70
2019-05-07T11:53:18.501Z,163.07
2019-05-07T11:55:45.646Z,163.90
2019-05-07T11:58:12.969Z,159.93
2019-05-07T12:00:46.339Z,164.70
2019-05-07T12:03:13.424Z,166.00
2019-05-07T12:05:43.423Z,167.13
2019-05-07T12:08:13.064Z,164.72
2019-05-07T12:10:41.259Z,163.75
2019-05-07T12:13:32.333Z,164.77
2019-05-07T12:16:00.081Z,163.77
2019-05-07T12:18:36.837Z,163.65
2019-05-07T12:21:18.345Z,164.00
2019-05-07T12:23:42.222Z,165.90
2019-05-07T12:26:12.610Z,167.32
2019-05-07T12:28:41.878Z,165.88
2019-05-07T12:31:19.990Z,165.73
2019-05-07T12:33:58.673Z,167.72
2019-05-07T12:36:26.070Z,169.10
2019-05-07T12:38:53.426Z,170.70
2019-05-07T12:41:33.897Z,167.95
2019-05-07T12:44:02.758Z,170.92
2019-05-07T12:46:30.322Z,168.37
2019-05-07T12:48:57.403Z,168.75
2019-05-07T12:51:33.939Z,168.93
2019-05-07T12:54:13.221Z,168.17
2019-05-07T12:56:42.510Z,173.78
2019-05-07T12:59:09.300Z,171.70
2019-05-07T13:01:52.098Z,171.15
2019-05-07T13:04:22.122Z,167.87
2019-05-07T13:07:26.974Z,165.47
2019-05-07T13:09:54.215Z,168.28
2019-05-07T13:12:21.733Z,164.43
2019-05-07T13:14:48.955Z,164.50
2019-05-07T13:17:16.017Z,166.28
2019-05-07T13:19:43.205Z,167.62
2019-05-07T13:22:17.124Z,166.53
2019-05-07T13:24:45.920Z,166.77
2019-05-07T13:27:12.979Z,165.37
2019-05-07T13:29:42.458Z,168.47
2019-05-07T13:32:12.262Z,164.22
2019-05-07T13:34:42.592Z,163.97
2019-05-07T13:37:15.343Z,163.15
2019-05-07T13:39:48.925Z,166.07
2019-05-07T13:42:41.939Z,169.95
2019-05-07T13:45:38.559Z,165.45
2019-05-07T13:48:22.590Z,167.55
2019-05-07T13:50:59.380Z,166.28
2019-05-07T13:53:29.483Z,167.37
2019-05-07T13:55:56.570Z,168.87
2019-05-07T13:58:23.644Z,165.80
2019-05-07T14:01:04.919Z,166.25
2019-05-07T14:03:33.377Z,165.30
2019-05-07T14:06:02.101Z,166.25
2019-05-07T14:08:32.107Z,165.05
2019-05-07T14:10:59.329Z,163.15
2019-05-07T14:13:26.765Z,163.00
2019-05-07T14:16:07.521Z,161.50
2019-05-07T14:18:36.286Z,161.77
2019-05-07T14:21:04.478Z,161.92
2019-05-07T14:23:32.521Z,162.05
2019-05-07T14:26:01.838Z,161.95
2019-05-07T14:28:28.827Z,160.63
2019-05-07T14:30:55.907Z,160.75
2019-05-07T14:33:41.447Z,162.05
2019-05-07T14:36:12.888Z,162.35
2019-05-07T14:38:43.089Z,165.80
2019-05-07T14:41:10.387Z,165.97
2019-05-07T14:43:43.136Z,165.52
2019-05-07T14:46:11.981Z,163.65
2019-05-07T14:48:41.920Z,164.82
2019-05-07T14:51:09.814Z,163.62
2019-05-07T14:53:37.015Z,165.73
2019-05-07T14:56:06.289Z,167.50
2019-05-07T14:58:33.399Z,164.32
2019-05-07T15:01:02.600Z,162.88
2019-05-07T15:03:31.794Z,162.95
2019-05-07T15:05:59.054Z,162.45
2019-05-07T15:08:27.368Z,161.85
2019-05-07T15:10:54.571Z,161.43
2019-05-07T15:13:27.241Z,162.53
2019-05-07T15:16:05.424Z,160.12
2019-05-07T15:19:03.017Z,163.80
2019-05-07T15:21:32.384Z,163.20
2019-05-07T15:23:59.395Z,163.55
2019-05-07T15:26:32.467Z,164.93
2019-05-07T15:29:07.135Z,163.30
2019-05-07T15:32:07.637Z,162.70
2019-05-07T15:34:34.826Z,160.60
2019-05-07T15:37:01.905Z,161.77
2019-05-07T15:39:29.022Z,163.22
2019-05-07T15:41:56.119Z,162.45
2019-05-07T15:44:23.197Z,162.15
2019-05-07T15:46:56.709Z,163.87
2019-05-07T15:49:23.801Z,163.70
2019-05-07T15:51:57.652Z,167.07
2019-05-07T15:54:48.065Z,161.80
2019-05-07T15:57:22.893Z,166.15
2019-05-07T15:59:52.492Z,163.75
2019-05-07T16:02:34.220Z,164.52
2019-05-07T16:05:02.239Z,167.50
2019-05-07T16:07:32.763Z,169.93
2019-05-07T16:10:01.085Z,167.40
2019-05-07T16:12:28.199Z,168.28
2019-05-07T16:15:03.159Z,168.43
2019-05-07T16:17:34.922Z,168.55
2019-05-07T16:20:03.203Z,166.45
2019-05-07T16:22:35.351Z,166.60
2019-05-07T16:25:06.846Z,166.68
2019-05-07T16:27:33.750Z,166.70
2019-05-07T16:30:00.858Z,166.37
2019-05-07T16:32:27.903Z,164.22
2019-05-07T16:34:54.989Z,167.28
2019-05-07T16:37:22.106Z,166.75
2019-05-07T16:39:49.314Z,164.03
2019-05-07T16:42:16.421Z,166.05
2019-05-07T16:44:45.245Z,164.50
2019-05-07T16:47:12.362Z,167.93
2019-05-07T16:49:39.502Z,166.70
2019-05-07T16:52:06.661Z,164.62
2019-05-07T16:54:34.105Z,166.57
2019-05-07T16:57:28.941Z,166.10
2019-05-07T16:59:56.265Z,164.67
2019-05-07T17:02:26.967Z,166.07
2019-05-07T17:05:25.747Z,166.30
2019-05-07T17:08:12.453Z,169.40
2019-05-07T17:10:39.666Z,167.70
2019-05-07T17:13:09.787Z,169.30
2019-05-07T17:15:55.742Z,167.00
2019-05-07T17:18:26.037Z,168.95
2019-05-07T17:20:54.362Z,166.37
2019-05-07T17:23:22.554Z,167.47
2019-05-07T17:25:52.571Z,168.30
2019-05-07T17:28:22.707Z,165.92
2019-05-07T17:30:52.304Z,166.10
2019-05-07T17:33:24.110Z,167.00
2019-05-07T17:35:51.851Z,171.22
2019-05-07T17:38:22.831Z,166.68
2019-05-07T17:40:52.448Z,165.55
2019-05-07T17:43:22.080Z,165.40
2019-05-07T17:45:49.589Z,164.20
2019-05-07T17:48:16.842Z,167.43
2019-05-07T17:51:06.568Z,167.62
2019-05-07T17:53:33.963Z,166.65
2019-05-07T17:56:02.103Z,166.12
2019-05-07T17:58:29.603Z,165.88
2019-05-07T18:00:58.246Z,166.88
2019-05-07T18:03:32.328Z,166.97
2019-05-07T18:06:02.246Z,165.75
2019-05-07T18:08:32.503Z,164.35
2019-05-07T18:11:02.514Z,165.20
2019-05-07T18:13:32.276Z,166.53
2019-05-07T18:16:22.318Z,164.95
2019-05-07T18:18:51.907Z,165.05
2019-05-07T18:21:18.828Z,166.68
2019-05-07T18:23:46.134Z,164.45
2019-05-07T18:26:26.938Z,163.22
2019-05-07T18:28:42.251Z,162.75
2019-05-07T18:31:12.159Z,163.12
2019-05-07T18:33:52.353Z,164.00
2019-05-07T18:36:23.863Z,158.50
2019-05-07T18:38:52.827Z,160.35
2019-05-07T18:41:22.335Z,160.60
2019-05-07T18:44:08.230Z,158.22
2019-05-07T18:46:39.925Z,157.18
2019-05-07T18:49:14.868Z,159.85
2019-05-07T18:51:53.492Z,158.75
2019-05-07T18:54:31.725Z,159.32
2019-05-07T18:57:02.402Z,157.62
2019-05-07T18:59:32.597Z,158.25
2019-05-07T19:02:13.401Z,156.60
2019-05-07T19:04:48.351Z,158.82
2019-05-07T19:07:26.927Z,158.70
2019-05-07T19:10:17.806Z,159.45
2019-05-07T19:12:49.826Z,155.75
2019-05-07T19:15:24.653Z,158.93
2019-05-07T19:18:05.482Z,157.90
2019-05-07T19:20:32.869Z,158.12
2019-05-07T19:23:02.514Z,156.00
2019-05-07T19:25:29.448Z,157.72
2019-05-07T19:27:58.723Z,156.93
2019-05-07T19:30:25.990Z,161.03
2019-05-07T19:32:53.124Z,160.18
2019-05-07T19:35:24.877Z,157.07
2019-05-07T19:37:54.970Z,162.05
2019-05-07T19:40:26.619Z,159.57
2019-05-07T19:42:53.970Z,158.42
2019-05-07T19:45:24.219Z,157.90
2019-05-07T19:47:52.435Z,157.55
2019-05-07T19:50:23.297Z,155.63
2019-05-07T19:52:52.166Z,156.87
2019-05-07T19:55:23.737Z,156.95
2019-05-07T19:58:12.853Z,156.72
2019-05-07T20:00:45.291Z,156.80
2019-05-07T20:03:13.122Z,159.90
2019-05-07T20:05:45.670Z,157.80
2019-05-07T20:08:24.976Z,156.47
2019-05-07T20:10:58.139Z,156.22
2019-05-07T20:13:28.491Z,156.40
2019-05-07T20:16:08.003Z,156.37
2019-05-07T20:18:37.135Z,156.55
2019-05-07T20:21:12.559Z,155.90
2019-05-07T20:23:47.403Z,156.60
2019-05-07T20:26:19.416Z,156.78
2019-05-07T20:28:49.457Z,155.97
2019-05-07T20:31:16.796Z,155.55
2019-05-07T20:33:47.502Z,156.65
2019-05-07T20:36:23.320Z,155.57
2019-05-07T20:38:52.278Z,155.75
2019-05-07T20:41:23.288Z,155.85
2019-05-07T20:43:52.352Z,155.85
2019-05-07T20:46:21.640Z,155.05
2019-05-07T20:48:49.042Z,157.45
2019-05-07T20:51:22.955Z,154.32
2019-05-07T20:54:09.479Z,156.35
2019-05-07T20:56:39.441Z,153.02
2019-05-07T20:59:07.002Z,155.10
2019-05-07T21:01:34.252Z,155.82
2019-05-07T21:04:02.896Z,156.72
2019-05-07T21:06:32.186Z,154.00
2019-05-07T21:08:59.402Z,153.35
2019-05-07T21:11:26.603Z,154.00
2019-05-07T21:13:53.720Z,152.97
2019-05-07T21:16:22.082Z,153.53
2019-05-07T21:18:49.843Z,153.12
2019-05-07T21:21:17.996Z,155.25
2019-05-07T21:23:45.377Z,152.65
2019-05-07T21:26:13.211Z,153.07
2019-05-07T21:28:45.049Z,154.93
2019-05-07T21:31:15.737Z,151.95
2019-05-07T21:33:44.881Z,152.50
2019-05-07T21:36:12.284Z,154.15
2019-05-07T21:38:42.560Z,152.57
2019-05-07T21:41:12.839Z,154.72
2019-05-07T21:43:43.059Z,151.82
2019-05-07T21:46:09.325Z,152.68
2019-05-07T21:48:39.142Z,153.12
2019-05-07T21:51:07.421Z,151.90
2019-05-07T21:54:03.689Z,152.72
2019-05-07T21:57:01.938Z,152.72
2019-05-07T21:59:32.686Z,151.15
2019-05-07T22:02:02.248Z,151.25
2019-05-07T22:04:29.762Z,152.38
2019-05-07T22:06:56.883Z,152.68
2019-05-07T22:09:23.932Z,152.50
2019-05-07T22:11:53.526Z,152.68
2019-05-07T22:14:22.247Z,152.05
2019-05-07T22:16:49.553Z,153.53
2019-05-07T22:19:16.647Z,152.22
2019-05-07T22:21:43.700Z,153.00
2019-05-07T22:24:13.049Z,152.87
2019-05-07T22:26:41.962Z,151.80
2019-05-07T22:29:08.892Z,152.45
2019-05-07T22:31:46.258Z,152.60
2019-05-07T22:34:27.844Z,152.15
2019-05-07T22:36:56.236Z,152.15
2019-05-07T22:39:29.413Z,153.53
2019-05-07T22:41:58.361Z,152.80
2019-05-07T22:44:26.585Z,154.07
2019-05-07T22:46:54.556Z,152.38
2019-05-07T22:49:22.933Z,152.95
2019-05-07T22:51:52.599Z,152.00
2019-05-07T22:54:19.372Z,152.15
2019-05-07T22:57:00.052Z,151.78
2019-05-07T22:59:28.896Z,151.85
2019-05-07T23:01:57.238Z,151.70
2019-05-07T23:04:25.536Z,153.82
2019-05-07T23:06:52.992Z,153.90
2019-05-07T23:09:22.341Z,152.22
2019-05-07T23:11:49.206Z,154.47
2019-05-07T23:14:17.088Z,152.22
2019-05-07T23:16:44.142Z,152.68
2019-05-07T23:19:13.915Z,152.20
2019-05-07T23:21:42.485Z,152.97
2019-05-07T23:24:09.118Z,152.97
2019-05-07T23:26:47.401Z,154.27
2019-05-07T23:29:05.364Z,153.72
2019-05-07T23:31:32.425Z,153.00
2019-05-07T23:34:01.448Z,151.82
2019-05-07T23:36:28.436Z,150.93
2019-05-07T23:38:55.495Z,151.32
2019-05-07T23:41:29.280Z,154.40
2019-05-07T23:44:14.516Z,152.38
2019-05-07T23:46:44.361Z,151.70
2019-05-07T23:49:12.441Z,150.05
2019-05-07T23:51:39.467Z,152.72
2019-05-07T23:54:06.741Z,152.15
2019-05-07T23:56:33.779Z,151.45
2019-05-07T23:59:00.874Z,151.32
